Time;durP1;ratioP1;P1;durP2;ratioP2;P2;SDS_P1;SDS_P2;PMS_P1;PMS_P2;Temp;Humidity;BMP_temperature;BMP_pressure;BME280_temperature;BME280_humidity;BME280_pressure;Samples;Min_cycle;Max_cycle;Signal;HPM_P1;HPM_P2
2023/08/30 00:02:10;;;;;;;;;;;14.10;99.90;;;;;;8368154;28;20383;-69
2023/08/30 00:06:11;;;;;;;;;;;14.10;99.90;;;;;;8370614;28;19925;-69
2023/08/30 00:10:13;;;;;;;;;;;14.10;99.90;;;;;;8367979;28;19928;-69
2023/08/30 00:14:14;;;;;;;;;;;14.10;99.90;;;;;;8374188;28;19955;-70
2023/08/30 00:18:18;;;;;;;;;;;14.10;99.90;;;;;;8364652;28;19924;-69
2023/08/30 00:22:21;;;;;;;;;;;14.00;99.90;;;;;;8374079;28;21992;-69
2023/08/30 00:26:22;;;;;;;;;;;14.00;99.90;;;;;;8371071;28;20323;-69
2023/08/30 00:30:24;;;;;;;;;;;13.90;99.90;;;;;;8379883;28;19932;-69
2023/08/30 00:34:26;;;;;;;;;;;13.90;99.90;;;;;;8381603;28;19924;-69
2023/08/30 00:38:27;;;;;;;;;;;13.90;99.90;;;;;;8380520;28;20429;-69
2023/08/30 00:42:29;;;;;;;;;;;13.90;99.90;;;;;;8376231;28;19965;-69
2023/08/30 00:46:32;;;;;;;;;;;13.90;99.90;;;;;;8373269;28;19932;-69
2023/08/30 00:50:34;;;;;;;;;;;13.90;99.90;;;;;;8361605;28;19950;-69
2023/08/30 00:54:36;;;;;;;;;;;13.90;99.90;;;;;;8383615;28;20299;-69
2023/08/30 00:58:38;;;;;;;;;;;13.90;99.90;;;;;;8376740;28;19924;-69
2023/08/30 01:02:39;;;;;;;;;;;13.90;99.90;;;;;;8371282;28;19925;-69
2023/08/30 01:06:41;;;;;;;;;;;14.00;99.90;;;;;;8377667;28;20458;-69
2023/08/30 01:10:48;;;;;;;;;;;14.00;99.90;;;;;;8381178;28;19924;-69
2023/08/30 01:14:50;;;;;;;;;;;14.00;99.90;;;;;;8373705;28;20437;-69
2023/08/30 01:18:54;;;;;;;;;;;14.00;99.90;;;;;;8370795;28;20303;-69
2023/08/30 01:22:59;;;;;;;;;;;14.00;99.90;;;;;;8375054;28;19936;-69
2023/08/30 01:27:07;;;;;;;;;;;14.00;99.90;;;;;;8379212;28;20287;-69
2023/08/30 01:31:09;;;;;;;;;;;14.10;99.90;;;;;;8363621;28;19940;-69
2023/08/30 01:35:16;;;;;;;;;;;14.10;99.90;;;;;;8373358;28;19931;-69
2023/08/30 01:39:18;;;;;;;;;;;14.10;99.90;;;;;;8370249;28;19935;-69
2023/08/30 01:43:21;;;;;;;;;;;14.20;99.90;;;;;;8371724;28;20391;-69
2023/08/30 01:47:26;;;;;;;;;;;14.20;99.90;;;;;;8377299;28;19925;-69
2023/08/30 01:51:29;;;;;;;;;;;14.20;99.90;;;;;;8373636;28;19928;-69
2023/08/30 01:55:31;;;;;;;;;;;14.20;99.90;;;;;;8375756;28;19925;-69
2023/08/30 01:59:33;;;;;;;;;;;14.30;99.90;;;;;;8366622;28;19928;-69
2023/08/30 02:03:35;;;;;;;;;;;14.30;99.90;;;;;;8370674;28;19932;-68
2023/08/30 02:07:39;;;;;;;;;;;14.30;99.90;;;;;;8364099;28;20284;-69
2023/08/30 02:11:43;;;;;;;;;;;14.30;99.90;;;;;;8370073;28;19924;-69
2023/08/30 02:15:46;;;;;;;;;;;14.30;99.90;;;;;;8379169;28;20299;-69
2023/08/30 02:19:48;;;;;;;;;;;14.30;99.90;;;;;;8377601;28;19925;-69
2023/08/30 02:23:50;;;;;;;;;;;14.40;99.90;;;;;;8375965;28;19928;-69
2023/08/30 02:27:52;;;;;;;;;;;14.40;99.90;;;;;;8372299;28;19924;-69
2023/08/30 02:31:54;;;;;;;;;;;14.40;99.90;;;;;;8374747;28;19933;-69
2023/08/30 02:35:55;;;;;;;;;;;14.40;99.90;;;;;;8359810;28;19925;-68
2023/08/30 02:39:57;;;;;;;;;;;14.40;99.90;;;;;;8370296;28;19924;-69
2023/08/30 02:43:59;;;;;;;;;;;14.40;99.90;;;;;;8372425;28;19951;-69
2023/08/30 02:48:00;;;;;;;;;;;14.30;99.90;;;;;;8374809;28;20287;-69
2023/08/30 02:52:02;;;;;;;;;;;14.30;99.90;;;;;;8368517;28;19925;-69
2023/08/30 02:56:04;;;;;;;;;;;14.30;99.90;;;;;;8369440;28;19928;-69
2023/08/30 03:00:06;;;;;;;;;;;14.30;99.90;;;;;;8369937;28;20371;-68
2023/08/30 03:04:08;;;;;;;;;;;14.20;99.90;;;;;;8372040;28;19970;-69
2023/08/30 03:08:09;;;;;;;;;;;14.20;99.90;;;;;;8361449;28;19925;-69
2023/08/30 03:12:11;;;;;;;;;;;14.20;99.90;;;;;;8365132;28;19931;-69
2023/08/30 03:16:13;;;;;;;;;;;14.20;99.90;;;;;;8368640;28;20018;-69
2023/08/30 03:20:15;;;;;;;;;;;14.20;99.90;;;;;;8366879;28;20375;-69
2023/08/30 03:24:17;;;;;;;;;;;14.20;99.90;;;;;;8369555;28;20335;-69
2023/08/30 03:28:19;;;;;;;;;;;14.20;99.90;;;;;;8367938;28;19925;-69
2023/08/30 03:32:20;;;;;;;;;;;14.20;99.90;;;;;;8374329;28;19978;-69
2023/08/30 03:36:22;;;;;;;;;;;14.20;99.90;;;;;;8376530;28;20423;-69
2023/08/30 03:40:24;;;;;;;;;;;14.20;99.90;;;;;;8376739;28;19932;-69
2023/08/30 03:44:25;;;;;;;;;;;14.20;99.90;;;;;;8360676;28;19929;-69
2023/08/30 03:48:27;;;;;;;;;;;14.10;99.90;;;;;;8372334;28;19925;-69
2023/08/30 03:52:29;;;;;;;;;;;14.10;99.90;;;;;;8372571;28;20066;-69
2023/08/30 03:56:30;;;;;;;;;;;14.10;99.90;;;;;;8381048;28;19925;-68
2023/08/30 04:00:34;;;;;;;;;;;14.10;99.90;;;;;;8363854;28;20524;-69
2023/08/30 04:04:36;;;;;;;;;;;14.00;99.90;;;;;;8372371;28;19936;-69
2023/08/30 04:08:38;;;;;;;;;;;14.00;99.90;;;;;;8370938;28;19925;-69
2023/08/30 04:12:39;;;;;;;;;;;13.90;99.90;;;;;;8378821;28;19933;-69
2023/08/30 04:16:41;;;;;;;;;;;13.90;99.90;;;;;;8382436;28;19928;-69
2023/08/30 04:20:43;;;;;;;;;;;13.90;99.90;;;;;;8373681;28;19950;-68
2023/08/30 04:24:45;;;;;;;;;;;13.80;99.90;;;;;;8372038;28;19928;-69
2023/08/30 04:28:47;;;;;;;;;;;13.80;99.90;;;;;;8373383;28;19971;-69
2023/08/30 04:32:48;;;;;;;;;;;13.80;99.90;;;;;;8366092;28;19959;-69
2023/08/30 04:36:50;;;;;;;;;;;13.70;99.90;;;;;;8369667;28;19978;-68
2023/08/30 04:40:56;;;;;;;;;;;13.70;99.90;;;;;;8373741;28;20283;-68
2023/08/30 04:45:00;;;;;;;;;;;13.60;99.90;;;;;;8371162;28;20418;-69
2023/08/30 04:49:02;;;;;;;;;;;13.60;99.90;;;;;;8381411;28;19990;-69
2023/08/30 04:53:04;;;;;;;;;;;13.50;99.90;;;;;;8380255;28;20418;-69
2023/08/30 04:57:05;;;;;;;;;;;13.50;99.90;;;;;;8375715;28;19928;-69
2023/08/30 05:01:07;;;;;;;;;;;13.50;99.90;;;;;;8373367;28;20355;-69
2023/08/30 05:05:09;;;;;;;;;;;13.40;99.90;;;;;;8374350;28;19924;-69
2023/08/30 05:09:10;;;;;;;;;;;13.40;99.90;;;;;;8371139;28;20303;-69
2023/08/30 05:13:15;;;;;;;;;;;13.40;99.90;;;;;;8378036;28;20150;-69
2023/08/30 05:17:17;;;;;;;;;;;13.40;99.90;;;;;;8378908;28;19928;-68
2023/08/30 05:21:19;;;;;;;;;;;13.30;99.90;;;;;;8370749;28;20012;-69
2023/08/30 05:25:20;;;;;;;;;;;13.30;99.90;;;;;;8381649;28;19978;-69
2023/08/30 05:29:22;;;;;;;;;;;13.40;99.90;;;;;;8375085;28;20006;-68
2023/08/30 05:33:24;;;;;;;;;;;13.40;99.90;;;;;;8353079;28;19925;-69
2023/08/30 05:37:25;;;;;;;;;;;13.50;99.90;;;;;;8372479;28;19929;-69
2023/08/30 05:41:27;;;;;;;;;;;13.50;99.90;;;;;;8379189;28;19929;-69
2023/08/30 05:45:29;;;;;;;;;;;13.60;99.90;;;;;;8365736;28;19924;-69
2023/08/30 05:49:30;;;;;;;;;;;13.70;99.90;;;;;;8356655;28;19924;-69
2023/08/30 05:53:32;;;;;;;;;;;13.80;99.90;;;;;;8374201;28;20058;-69
2023/08/30 05:57:33;;;;;;;;;;;13.70;99.90;;;;;;8383164;28;19932;-69
2023/08/30 06:01:35;;;;;;;;;;;13.70;99.90;;;;;;8377086;28;19924;-69
2023/08/30 06:05:37;;;;;;;;;;;13.70;99.90;;;;;;8370288;28;20494;-69
2023/08/30 06:09:38;;;;;;;;;;;13.70;99.90;;;;;;8371752;28;19925;-69
2023/08/30 06:13:40;;;;;;;;;;;13.70;99.90;;;;;;8374195;28;19929;-69
2023/08/30 06:17:42;;;;;;;;;;;13.70;99.90;;;;;;8379611;28;19925;-69
2023/08/30 06:21:43;;;;;;;;;;;13.80;99.90;;;;;;8363717;28;20375;-69
2023/08/30 06:25:52;;;;;;;;;;;13.80;99.90;;;;;;8368856;28;20374;-69
2023/08/30 06:29:54;;;;;;;;;;;13.90;99.90;;;;;;8363715;28;19925;-69
2023/08/30 06:33:55;;;;;;;;;;;13.90;99.90;;;;;;8366681;28;20324;-69
2023/08/30 06:37:57;;;;;;;;;;;13.80;99.90;;;;;;8372736;28;20359;-69
2023/08/30 06:41:59;;;;;;;;;;;13.80;99.90;;;;;;8354793;28;19924;-69
2023/08/30 06:46:00;;;;;;;;;;;13.70;99.90;;;;;;8359492;28;20298;-69
2023/08/30 06:50:03;;;;;;;;;;;13.70;99.90;;;;;;8373050;28;19935;-69
2023/08/30 06:54:05;;;;;;;;;;;13.70;99.90;;;;;;8374815;28;20409;-68
2023/08/30 06:58:06;;;;;;;;;;;13.70;99.90;;;;;;8361230;28;19925;-68
2023/08/30 07:02:08;;;;;;;;;;;13.70;99.90;;;;;;8380486;28;20370;-69
2023/08/30 07:06:10;;;;;;;;;;;13.70;99.90;;;;;;8379951;28;19925;-69
2023/08/30 07:10:12;;;;;;;;;;;13.70;99.90;;;;;;8382620;28;19977;-69
2023/08/30 07:14:14;;;;;;;;;;;13.70;99.90;;;;;;8373977;28;19978;-69
2023/08/30 07:18:16;;;;;;;;;;;13.70;99.90;;;;;;8382445;28;19931;-69
2023/08/30 07:22:17;;;;;;;;;;;13.80;99.90;;;;;;8390024;28;19933;-69
2023/08/30 07:26:19;;;;;;;;;;;13.80;99.90;;;;;;8385789;28;20380;-69
2023/08/30 07:30:21;;;;;;;;;;;13.80;99.90;;;;;;8374738;28;19924;-69
2023/08/30 07:34:22;;;;;;;;;;;13.80;99.90;;;;;;8377957;28;19933;-69
2023/08/30 07:38:24;;;;;;;;;;;13.90;99.90;;;;;;8382309;28;19924;-69
2023/08/30 07:42:26;;;;;;;;;;;13.90;99.90;;;;;;8374796;28;20020;-68
2023/08/30 07:46:28;;;;;;;;;;;13.90;99.90;;;;;;8378703;28;19924;-68
2023/08/30 07:50:30;;;;;;;;;;;13.90;99.90;;;;;;8383169;28;19970;-68
2023/08/30 07:54:31;;;;;;;;;;;13.90;99.90;;;;;;8382620;28;19924;-69
2023/08/30 07:58:33;;;;;;;;;;;13.90;99.90;;;;;;8382554;28;20264;-69
2023/08/30 08:02:35;;;;;;;;;;;14.00;99.90;;;;;;8385693;28;19924;-69
2023/08/30 08:06:36;;;;;;;;;;;14.00;99.90;;;;;;8378230;28;19931;-68
2023/08/30 08:10:38;;;;;;;;;;;14.00;99.90;;;;;;8383640;28;19931;-69
2023/08/30 08:14:40;;;;;;;;;;;14.00;99.90;;;;;;8383736;28;20379;-69
2023/08/30 08:18:41;;;;;;;;;;;14.00;99.90;;;;;;8376260;28;19928;-69
2023/08/30 08:22:43;;;;;;;;;;;14.10;99.90;;;;;;8384205;28;19936;-69
2023/08/30 08:26:45;;;;;;;;;;;14.10;99.90;;;;;;8379216;28;20376;-69
2023/08/30 08:30:50;;;;;;;;;;;14.10;99.90;;;;;;8378274;28;19929;-69
2023/08/30 08:34:52;;;;;;;;;;;14.10;99.90;;;;;;8374979;28;19982;-68
2023/08/30 08:38:54;;;;;;;;;;;14.10;99.90;;;;;;8385789;28;19940;-68
2023/08/30 08:42:56;;;;;;;;;;;14.10;99.90;;;;;;8381195;28;20004;-69
2023/08/30 08:46:58;;;;;;;;;;;14.10;99.90;;;;;;8365803;28;19978;-69
2023/08/30 08:51:00;;;;;;;;;;;14.10;99.90;;;;;;8384625;28;19972;-68
2023/08/30 08:55:02;;;;;;;;;;;14.20;99.90;;;;;;8376521;28;19940;-68
2023/08/30 08:59:06;;;;;;;;;;;14.20;99.90;;;;;;8384570;28;20022;-69
2023/08/30 09:03:08;;;;;;;;;;;14.20;99.90;;;;;;8380779;28;20025;-69
2023/08/30 09:07:12;;;;;;;;;;;14.20;99.90;;;;;;8377606;28;19929;-69
2023/08/30 09:11:13;;;;;;;;;;;14.30;99.90;;;;;;8357766;28;19962;-68
2023/08/30 09:15:15;;;;;;;;;;;14.30;99.90;;;;;;8373672;28;20551;-68
2023/08/30 09:19:20;;;;;;;;;;;14.30;99.90;;;;;;8372208;28;19928;-69
2023/08/30 09:23:24;;;;;;;;;;;14.30;99.90;;;;;;8382495;28;19928;-68
2023/08/30 09:27:31;;;;;;;;;;;14.40;99.90;;;;;;8384031;28;19928;-68
2023/08/30 09:31:37;;;;;;;;;;;14.50;99.90;;;;;;8377397;28;19951;-69
2023/08/30 09:35:45;;;;;;;;;;;14.50;99.90;;;;;;8367096;28;20291;-68
2023/08/30 09:39:52;;;;;;;;;;;14.60;99.90;;;;;;8375877;28;19968;-68
2023/08/30 09:43:54;;;;;;;;;;;14.60;99.90;;;;;;8381164;28;19931;-69
2023/08/30 09:48:12;;;;;;;;;;;14.70;99.90;;;;;;8372407;28;19932;-69
2023/08/30 09:52:14;;;;;;;;;;;14.80;99.90;;;;;;8376926;28;19928;-68
2023/08/30 09:56:17;;;;;;;;;;;15.00;99.90;;;;;;8381197;28;19932;-68
2023/08/30 10:00:18;;;;;;;;;;;15.10;99.90;;;;;;8369425;28;20387;-68
2023/08/30 10:04:20;;;;;;;;;;;15.30;99.90;;;;;;8363774;28;19928;-68
2023/08/30 10:08:23;;;;;;;;;;;15.40;99.90;;;;;;8357762;28;19929;-68
2023/08/30 10:12:25;;;;;;;;;;;15.50;99.90;;;;;;8380733;28;19924;-69
2023/08/30 10:16:29;;;;;;;;;;;15.70;99.90;;;;;;8369736;28;19928;-69
2023/08/30 10:20:31;;;;;;;;;;;15.90;99.90;;;;;;8368078;28;19978;-69
2023/08/30 10:24:41;;;;;;;;;;;16.00;99.90;;;;;;8374100;28;20351;-69
2023/08/30 10:28:58;;;;;;;;;;;16.10;99.90;;;;;;8380414;28;19932;-69
2023/08/30 10:33:00;;;;;;;;;;;16.20;99.90;;;;;;8361135;28;19925;-69
2023/08/30 10:37:03;;;;;;;;;;;16.20;99.90;;;;;;8376022;28;20329;-69
2023/08/30 10:41:08;;;;;;;;;;;16.30;99.90;;;;;;8378102;28;19924;-69
2023/08/30 10:45:09;;;;;;;;;;;16.30;99.90;;;;;;8366461;28;19925;-69
2023/08/30 10:49:15;;;;;;;;;;;16.40;99.90;;;;;;8370709;28;19929;-69
2023/08/30 10:53:16;;;;;;;;;;;16.40;99.90;;;;;;8378607;28;19977;-69
2023/08/30 10:57:24;;;;;;;;;;;16.40;99.90;;;;;;8376594;28;19929;-69
2023/08/30 11:01:26;;;;;;;;;;;16.50;99.90;;;;;;8371297;28;20287;-69
2023/08/30 11:05:29;;;;;;;;;;;16.60;99.90;;;;;;8383151;28;20380;-69
2023/08/30 11:09:30;;;;;;;;;;;16.60;99.90;;;;;;8378617;28;19929;-69
2023/08/30 11:13:32;;;;;;;;;;;16.70;99.90;;;;;;8372316;28;19963;-69
2023/08/30 11:17:34;;;;;;;;;;;16.70;99.90;;;;;;8377255;28;19932;-69
2023/08/30 11:21:36;;;;;;;;;;;16.60;99.90;;;;;;8386219;28;19977;-69
2023/08/30 11:25:38;;;;;;;;;;;16.60;99.90;;;;;;8371685;28;19941;-69
2023/08/30 11:29:40;;;;;;;;;;;16.60;99.90;;;;;;8373175;28;20279;-69
2023/08/30 11:33:49;;;;;;;;;;;16.70;99.90;;;;;;8378358;28;19928;-69
2023/08/30 11:37:51;;;;;;;;;;;16.80;99.90;;;;;;8378987;28;19924;-69
2023/08/30 11:41:52;;;;;;;;;;;17.00;99.90;;;;;;8368214;28;19925;-69
2023/08/30 11:45:57;;;;;;;;;;;17.10;99.90;;;;;;8372868;28;19931;-69
2023/08/30 11:50:00;;;;;;;;;;;17.10;99.90;;;;;;8373684;28;19931;-69
2023/08/30 11:54:03;;;;;;;;;;;17.10;99.90;;;;;;8371947;28;19956;-69
2023/08/30 11:58:04;;;;;;;;;;;17.00;99.90;;;;;;8377232;28;19925;-69
2023/08/30 12:02:07;;;;;;;;;;;17.00;99.90;;;;;;8368289;28;19925;-69
2023/08/30 12:06:12;;;;;;;;;;;17.00;99.90;;;;;;8379905;28;19970;-69
2023/08/30 12:10:17;;;;;;;;;;;17.00;99.90;;;;;;8368463;28;19984;-69
2023/08/30 12:14:19;;;;;;;;;;;17.10;99.90;;;;;;8369819;28;19925;-69
2023/08/30 12:18:24;;;;;;;;;;;17.10;99.90;;;;;;8380946;28;19978;-68
2023/08/30 12:22:38;;;;;;;;;;;17.20;99.90;;;;;;8373625;28;19928;-68
2023/08/30 12:26:40;;;;;;;;;;;17.30;99.90;;;;;;8379676;28;20387;-69
2023/08/30 12:30:41;;;;;;;;;;;17.60;99.90;;;;;;8380500;28;19990;-69
2023/08/30 12:34:43;;;;;;;;;;;17.70;99.90;;;;;;8367510;28;20438;-69
2023/08/30 12:38:45;;;;;;;;;;;17.70;99.90;;;;;;8378598;28;20299;-69
2023/08/30 12:52:53;;;;;;;;;;;17.60;99.90;;;;;;8379867;28;20397;-69
2023/08/30 12:56:55;;;;;;;;;;;17.60;99.90;;;;;;8362932;28;19924;-69
2023/08/30 13:00:56;;;;;;;;;;;17.70;99.90;;;;;;8381272;28;19924;-69
2023/08/30 13:04:58;;;;;;;;;;;17.70;99.90;;;;;;8380792;28;19931;-69
2023/08/30 13:09:00;;;;;;;;;;;17.80;99.90;;;;;;8352508;28;19928;-69
2023/08/30 13:13:03;;;;;;;;;;;18.00;99.90;;;;;;8376963;28;19929;-69
2023/08/30 13:17:04;;;;;;;;;;;18.00;99.90;;;;;;8358214;28;19932;-69
2023/08/30 13:21:06;;;;;;;;;;;18.00;99.90;;;;;;8368526;28;19981;-69
2023/08/30 13:25:08;;;;;;;;;;;18.10;99.90;;;;;;8367438;28;19932;-69
2023/08/30 13:29:10;;;;;;;;;;;18.10;99.90;;;;;;8363266;28;19925;-69
2023/08/30 13:33:12;;;;;;;;;;;18.00;99.90;;;;;;8370774;28;20149;-69
2023/08/30 13:37:14;;;;;;;;;;;18.00;99.90;;;;;;8363919;28;19942;-69
2023/08/30 13:41:16;;;;;;;;;;;18.00;99.90;;;;;;8375809;28;20280;-69
2023/08/30 13:45:20;;;;;;;;;;;18.10;99.90;;;;;;8381060;28;19924;-69
2023/08/30 13:49:22;;;;;;;;;;;18.00;99.90;;;;;;8382276;28;20287;-69
2023/08/30 13:53:24;;;;;;;;;;;17.90;99.90;;;;;;8371925;28;19932;-69
2023/08/30 13:57:26;;;;;;;;;;;17.90;99.90;;;;;;8378638;28;20279;-69
2023/08/30 14:01:27;;;;;;;;;;;17.90;99.90;;;;;;8362275;28;19925;-69
2023/08/30 14:05:29;;;;;;;;;;;17.80;99.90;;;;;;8369423;28;20023;-69
2023/08/30 14:09:31;;;;;;;;;;;17.60;99.90;;;;;;8375051;28;19925;-69
2023/08/30 14:13:32;;;;;;;;;;;17.40;99.90;;;;;;8370640;28;19933;-69
2023/08/30 14:17:34;;;;;;;;;;;17.30;99.90;;;;;;8370263;28;19931;-69
2023/08/30 14:21:36;;;;;;;;;;;17.20;99.90;;;;;;8358202;28;19924;-69
2023/08/30 14:25:37;;;;;;;;;;;17.10;99.90;;;;;;8380344;28;19947;-69
2023/08/30 14:29:39;;;;;;;;;;;17.10;99.90;;;;;;8370161;28;19925;-69
2023/08/30 14:33:44;;;;;;;;;;;17.10;99.90;;;;;;8382866;28;20206;-69
2023/08/30 14:37:47;;;;;;;;;;;17.10;99.90;;;;;;8378275;28;20375;-69
2023/08/30 14:41:48;;;;;;;;;;;17.20;99.90;;;;;;8376397;28;19955;-69
2023/08/30 14:45:50;;;;;;;;;;;17.40;99.90;;;;;;8376842;28;20295;-69
2023/08/30 14:50:04;;;;;;;;;;;17.40;99.90;;;;;;8371326;28;20478;-69
2023/08/30 14:54:06;;;;;;;;;;;17.30;99.90;;;;;;8371764;28;19980;-69
2023/08/30 14:58:07;;;;;;;;;;;17.20;99.90;;;;;;8368709;28;19932;-69
2023/08/30 15:02:09;;;;;;;;;;;17.20;99.90;;;;;;8375132;28;20410;-69
2023/08/30 15:06:11;;;;;;;;;;;17.20;99.90;;;;;;8373678;28;19928;-69
2023/08/30 15:10:12;;;;;;;;;;;17.30;99.90;;;;;;8380965;28;19950;-69
2023/08/30 15:14:14;;;;;;;;;;;17.40;99.90;;;;;;8363387;28;19928;-69
2023/08/30 15:18:16;;;;;;;;;;;17.80;99.90;;;;;;8373620;28;19925;-69
2023/08/30 15:22:20;;;;;;;;;;;17.80;99.90;;;;;;8375728;28;19928;-69
2023/08/30 15:26:22;;;;;;;;;;;17.70;99.90;;;;;;8372098;28;19937;-69
2023/08/30 15:30:23;;;;;;;;;;;17.70;99.90;;;;;;8380258;28;21196;-69
2023/08/30 15:34:25;;;;;;;;;;;17.80;99.90;;;;;;8374998;28;19932;-70
2023/08/30 15:38:27;;;;;;;;;;;18.00;99.90;;;;;;8380531;28;19931;-69
2023/08/30 15:42:29;;;;;;;;;;;17.90;99.90;;;;;;8378777;28;20014;-69
2023/08/30 15:46:30;;;;;;;;;;;17.80;99.90;;;;;;8372220;28;19967;-69
2023/08/30 15:50:34;;;;;;;;;;;17.80;99.90;;;;;;8351219;28;20019;-69
2023/08/30 15:54:36;;;;;;;;;;;18.10;99.90;;;;;;8379162;28;20360;-69
2023/08/30 15:58:37;;;;;;;;;;;18.60;99.90;;;;;;8379834;28;19975;-69
2023/08/30 16:02:39;;;;;;;;;;;19.10;99.90;;;;;;8383052;28;20351;-69
2023/08/30 16:06:42;;;;;;;;;;;19.50;99.90;;;;;;8376963;28;19932;-69
2023/08/30 16:10:43;;;;;;;;;;;19.70;99.90;;;;;;8377167;28;19925;-69
2023/08/30 16:14:45;;;;;;;;;;;19.50;99.90;;;;;;8381976;28;19933;-69
2023/08/30 16:18:47;;;;;;;;;;;19.20;99.90;;;;;;8384101;28;19932;-69
2023/08/30 16:22:48;;;;;;;;;;;19.20;99.90;;;;;;8383769;28;19928;-69
2023/08/30 16:26:55;;;;;;;;;;;19.20;99.90;;;;;;8383660;28;20433;-69
2023/08/30 16:31:03;;;;;;;;;;;19.10;99.90;;;;;;8376004;28;19935;-69
2023/08/30 16:45:25;;;;;;;;;;;19.10;99.90;;;;;;8375851;28;19920;-69
2023/08/30 16:49:26;;;;;;;;;;;18.80;99.90;;;;;;8370331;28;19928;-69
2023/08/30 16:53:28;;;;;;;;;;;18.90;99.90;;;;;;8365487;28;19932;-69
2023/08/30 16:57:29;;;;;;;;;;;19.00;99.90;;;;;;8374654;28;19925;-69
2023/08/30 17:01:31;;;;;;;;;;;19.20;99.90;;;;;;8366276;28;19932;-69
2023/08/30 17:05:37;;;;;;;;;;;19.10;99.90;;;;;;8380234;28;19932;-69
2023/08/30 17:09:39;;;;;;;;;;;18.80;99.90;;;;;;8376415;28;19932;-69
2023/08/30 17:13:41;;;;;;;;;;;18.70;99.90;;;;;;8372076;28;20285;-69
2023/08/30 17:17:42;;;;;;;;;;;18.60;99.90;;;;;;8375609;28;19932;-70
2023/08/30 17:21:44;;;;;;;;;;;18.40;99.90;;;;;;8371937;28;19929;-69
2023/08/30 17:25:46;;;;;;;;;;;18.20;99.90;;;;;;8383701;28;19929;-69
2023/08/30 17:29:47;;;;;;;;;;;17.90;99.90;;;;;;8372745;28;20365;-69
2023/08/30 17:33:49;;;;;;;;;;;17.70;99.90;;;;;;8375669;28;19931;-69
2023/08/30 17:37:52;;;;;;;;;;;17.50;99.90;;;;;;8371878;28;19925;-69
2023/08/30 17:41:53;;;;;;;;;;;17.40;99.90;;;;;;8374512;28;20304;-70
2023/08/30 17:45:55;;;;;;;;;;;17.40;99.90;;;;;;8382024;28;19924;-69
2023/08/30 17:49:57;;;;;;;;;;;17.40;99.90;;;;;;8383037;28;19925;-69
2023/08/30 17:53:58;;;;;;;;;;;17.30;99.90;;;;;;8369225;28;20529;-69
2023/08/30 17:58:00;;;;;;;;;;;17.20;99.90;;;;;;8376514;28;20291;-69
2023/08/30 18:02:02;;;;;;;;;;;17.10;99.90;;;;;;8348081;28;20269;-69
2023/08/30 18:06:04;;;;;;;;;;;17.00;99.90;;;;;;8377350;28;20384;-69
2023/08/30 18:10:06;;;;;;;;;;;16.90;99.90;;;;;;8374625;28;19924;-70
2023/08/30 18:14:07;;;;;;;;;;;16.80;99.90;;;;;;8373064;28;20347;-69
2023/08/30 18:18:09;;;;;;;;;;;16.80;99.90;;;;;;8375413;28;19969;-70
2023/08/30 18:22:11;;;;;;;;;;;16.80;99.90;;;;;;8357438;28;19929;-70
2023/08/30 18:26:12;;;;;;;;;;;16.80;99.90;;;;;;8382675;28;19987;-70
2023/08/30 18:30:14;;;;;;;;;;;16.80;99.90;;;;;;8378344;28;20367;-70
2023/08/30 18:34:16;;;;;;;;;;;16.70;99.90;;;;;;8378780;28;19925;-70
2023/08/30 18:38:18;;;;;;;;;;;16.60;99.90;;;;;;8375547;28;20313;-69
2023/08/30 18:42:19;;;;;;;;;;;16.60;99.90;;;;;;8374300;28;19928;-69
2023/08/30 18:46:21;;;;;;;;;;;16.40;99.90;;;;;;8360700;28;19932;-69
2023/08/30 18:50:23;;;;;;;;;;;16.40;99.90;;;;;;8370386;28;19981;-69
2023/08/30 18:54:26;;;;;;;;;;;16.40;99.90;;;;;;8375200;28;19972;-69
2023/08/30 18:58:27;;;;;;;;;;;16.30;99.90;;;;;;8375439;28;19932;-70
2023/08/30 19:02:29;;;;;;;;;;;16.30;99.90;;;;;;8372866;28;20351;-70
2023/08/30 19:06:31;;;;;;;;;;;16.30;99.90;;;;;;8369590;28;19963;-70
2023/08/30 19:10:33;;;;;;;;;;;16.20;99.90;;;;;;8376404;28;19932;-70
2023/08/30 19:14:34;;;;;;;;;;;16.20;99.90;;;;;;8377627;28;19932;-70
2023/08/30 19:18:36;;;;;;;;;;;16.10;99.90;;;;;;8372192;28;20379;-69
2023/08/30 19:22:38;;;;;;;;;;;16.10;99.90;;;;;;8377328;28;19924;-70
2023/08/30 19:26:40;;;;;;;;;;;16.10;99.90;;;;;;8380577;28;19925;-70
2023/08/30 19:30:45;;;;;;;;;;;16.10;99.90;;;;;;8377942;28;19932;-70
2023/08/30 19:34:51;;;;;;;;;;;16.10;99.90;;;;;;8378770;28;20377;-70
2023/08/30 19:38:53;;;;;;;;;;;16.20;99.90;;;;;;8358249;28;20012;-70
2023/08/30 19:42:55;;;;;;;;;;;16.20;99.90;;;;;;8378928;28;19932;-69
2023/08/30 19:46:58;;;;;;;;;;;16.10;99.90;;;;;;8369567;28;19943;-69
2023/08/30 19:51:00;;;;;;;;;;;16.00;99.90;;;;;;8378444;28;19925;-69
2023/08/30 19:55:02;;;;;;;;;;;16.00;99.90;;;;;;8375079;28;19924;-70
2023/08/30 19:59:04;;;;;;;;;;;15.90;99.90;;;;;;8359714;28;19955;-69
2023/08/30 20:03:06;;;;;;;;;;;15.80;99.90;;;;;;8374701;28;19929;-69
2023/08/30 20:07:07;;;;;;;;;;;15.80;99.90;;;;;;8374535;28;19979;-69
2023/08/30 20:11:09;;;;;;;;;;;15.70;99.90;;;;;;8367889;28;19929;-69
2023/08/30 20:15:11;;;;;;;;;;;15.60;99.90;;;;;;8376477;28;19924;-69
2023/08/30 20:19:16;;;;;;;;;;;15.50;99.90;;;;;;8371362;28;19928;-69
2023/08/30 20:23:18;;;;;;;;;;;15.30;99.90;;;;;;8374552;28;20256;-69
2023/08/30 20:27:20;;;;;;;;;;;15.30;99.90;;;;;;8384059;28;19940;-69
2023/08/30 20:31:21;;;;;;;;;;;15.20;99.90;;;;;;8380882;28;19924;-69
2023/08/30 20:35:23;;;;;;;;;;;15.30;99.90;;;;;;8385451;28;20371;-69
2023/08/30 20:39:25;;;;;;;;;;;15.20;99.90;;;;;;8381757;28;19993;-69
2023/08/30 20:43:26;;;;;;;;;;;15.20;99.90;;;;;;8376592;28;19932;-69
2023/08/30 20:47:29;;;;;;;;;;;15.20;99.90;;;;;;8382292;28;19925;-70
2023/08/30 20:51:31;;;;;;;;;;;15.20;99.90;;;;;;8377429;28;19931;-69
2023/08/30 20:55:39;;;;;;;;;;;15.20;99.90;;;;;;8381069;28;19940;-69
2023/08/30 20:59:41;;;;;;;;;;;15.20;99.90;;;;;;8382976;28;20303;-69
2023/08/30 21:03:43;;;;;;;;;;;15.20;99.90;;;;;;8368310;28;20429;-69
2023/08/30 21:07:45;;;;;;;;;;;15.20;99.90;;;;;;8369808;28;20061;-69
2023/08/30 21:11:46;;;;;;;;;;;15.20;99.90;;;;;;8366776;28;20457;-69
2023/08/30 21:15:48;;;;;;;;;;;15.20;99.90;;;;;;8373314;28;19992;-69
2023/08/30 21:19:50;;;;;;;;;;;15.10;99.90;;;;;;8373170;28;20286;-69
2023/08/30 21:23:51;;;;;;;;;;;14.90;99.90;;;;;;8379693;28;20331;-69
2023/08/30 21:38:07;;;;;;;;;;;14.70;99.90;;;;;;8356969;28;20421;-69
2023/08/30 21:42:09;;;;;;;;;;;14.60;99.90;;;;;;8379632;28;20383;-69
2023/08/30 21:46:10;;;;;;;;;;;14.40;99.90;;;;;;8373578;28;20296;-69
2023/08/30 21:50:12;;;;;;;;;;;14.30;99.90;;;;;;8370269;28;20331;-69
2023/08/30 21:54:14;;;;;;;;;;;14.30;99.90;;;;;;8378823;28;19935;-69
2023/08/30 21:58:16;;;;;;;;;;;14.20;99.90;;;;;;8375072;28;19993;-69
2023/08/30 22:02:17;;;;;;;;;;;14.10;99.90;;;;;;8377251;28;19925;-69
2023/08/30 22:06:20;;;;;;;;;;;14.10;99.90;;;;;;8376008;28;19924;-69
2023/08/30 22:10:22;;;;;;;;;;;14.00;99.90;;;;;;8373483;28;19925;-69
2023/08/30 22:14:23;;;;;;;;;;;14.00;99.90;;;;;;8376891;28;20390;-69
2023/08/30 22:18:27;;;;;;;;;;;13.90;99.90;;;;;;8372002;28;19925;-69
2023/08/30 22:22:30;;;;;;;;;;;13.90;99.90;;;;;;8370929;28;21360;-69
2023/08/30 22:26:32;;;;;;;;;;;13.90;99.90;;;;;;8380516;28;19931;-69
2023/08/30 22:30:34;;;;;;;;;;;14.00;99.90;;;;;;8381457;28;20367;-69
2023/08/30 22:34:35;;;;;;;;;;;14.00;99.90;;;;;;8377002;28;20385;-69
2023/08/30 22:38:37;;;;;;;;;;;14.00;99.90;;;;;;8377205;28;20642;-69
2023/08/30 22:42:39;;;;;;;;;;;13.90;99.90;;;;;;8371946;28;19924;-69
2023/08/30 22:46:41;;;;;;;;;;;13.90;99.90;;;;;;8379751;28;19932;-69
2023/08/30 22:50:43;;;;;;;;;;;13.90;99.90;;;;;;8366950;28;19951;-69
2023/08/30 22:54:45;;;;;;;;;;;13.80;99.90;;;;;;8373714;28;20137;-69
2023/08/30 22:58:46;;;;;;;;;;;13.80;99.90;;;;;;8372643;28;19924;-69
2023/08/30 23:02:50;;;;;;;;;;;13.70;99.90;;;;;;8362295;28;19952;-69
2023/08/30 23:06:52;;;;;;;;;;;13.70;99.90;;;;;;8374609;28;19928;-69
2023/08/30 23:10:53;;;;;;;;;;;13.70;99.90;;;;;;8374225;28;19932;-69
2023/08/30 23:14:56;;;;;;;;;;;13.70;99.90;;;;;;8371104;28;20027;-69
2023/08/30 23:18:59;;;;;;;;;;;13.70;99.90;;;;;;8365675;28;19931;-69
2023/08/30 23:23:01;;;;;;;;;;;13.70;99.90;;;;;;8366139;28;20363;-69
2023/08/30 23:27:03;;;;;;;;;;;13.70;99.90;;;;;;8367312;28;19931;-69
2023/08/30 23:31:06;;;;;;;;;;;13.70;99.90;;;;;;8357494;28;20446;-69
2023/08/30 23:35:07;;;;;;;;;;;13.70;99.90;;;;;;8370680;28;19925;-69
2023/08/30 23:39:13;;;;;;;;;;;13.70;99.90;;;;;;8359219;28;19932;-69
2023/08/30 23:43:15;;;;;;;;;;;13.70;99.90;;;;;;8377985;28;20434;-69
2023/08/30 23:47:16;;;;;;;;;;;13.60;99.90;;;;;;8377502;28;19932;-69
2023/08/30 23:51:18;;;;;;;;;;;13.50;99.90;;;;;;8365246;28;20056;-69
2023/08/30 23:55:20;;;;;;;;;;;13.40;99.90;;;;;;8379161;28;19929;-69
2023/08/30 23:59:21;;;;;;;;;;;13.40;99.90;;;;;;8378141;28;20462;-69
